Terminal Aerodrome Forecast
Issued by NWS

Home | Current Version | Previous Version | Text Only | Print | Product List | Glossary On
Versions: 1 2 3 4 5 6 7 8 9 10 11 12 13 14 15 16 17
403
FTUS46 KLOX 252346
TAFLGB
TAF
KLGB 252346Z 2600/2624 20008KT P6SM OVC120
     FM260100 29010KT P6SM BKN100
     FM260500 VRB03KT P6SM SCT040 BKN100
     FM261000 VRB03KT P6SM -SHRA BKN010 OVC025
     FM261400 VRB03KT 5SM -RA BR SCT010 OVC025
     FM261800 11007KT P6SM -SHRA SCT015 BKN030
     FM262100 16007KT P6SM VCSH SCT020 BKN040=

USA.gov is the U.S. government's official web portal to all federal, state and local government web resources and services.